KGJT/GJT METAR and TAF weather

Enter ICAO airport designator
Station Type Date Time Source
KGJT METAR 2020/09/24 10:53 UTC NOAA

KGJT 241053Z AUTO 14011KT 10SM CLR 16/M01 A3016 RMK AO2 SLP149 T01561006


Station Type Date Time Source
KGJT Decoded METAR 2020/09/24 10:53 UTC NOAA

GRAND JUNCTION WALKER FIELD, CO, United States (KGJT) 39-08N 108-32W 1452M
Sep 24, 2020 - 06:53 AM EDT / 2020.09.24 1053 UTC
Wind: from the SE (140 degrees) at 13 MPH (11 KT):0
Visibility: 10 mile(s):0
Sky conditions: clear
Temperature: 60.1 F (15.6 C)
Dew Point: 30.9 F (-0.6 C)
Relative Humidity: 33%
Pressure (altimeter): 30.16 in. Hg (1021 hPa)
ob: KGJT 241053Z AUTO 14011KT 10SM CLR 16/M01 A3016 RMK AO2 SLP149 T01561006
cycle: 11

Station Type Date Time Source
KGJT TAF 2020/09/24 10:58 UTC NOAA

TAF
AMD KGJT 240956Z 2410/2506 13011KT P6SM SKC
FM241200 12007KT P6SM SKC
FM242100 28009KT P6SM SKC
FM250200 03005KT P6SM SKC

Example: see airport list